Contact Info

Augusta Flying Club, Inc

KDNL 222253Z AUTO 09007KT 10SM OVC033 10/M03 A3050 RMK AO2 SLP329 T01001033 TSNO


TAF AMD KDNL 222200Z 2222/2318 10008KT P6SM OVC035 FM230300 09005KT P6SM OVC020 WS020/14035KT FM230900 08004KT 4SM BR OVC009 WS020/16035KT FM231200 VRB03KT 4SM BR VCSH OVC009

info@augustaflyingclub.com

Send us a message